createdAt,value
2022-09-30T00:00:23.328Z,989.5
2022-09-30T00:05:23.307Z,989.5
2022-09-30T00:10:23.586Z,989.6
2022-09-30T00:15:24.214Z,989.6
2022-09-30T00:20:24.838Z,989.7
2022-09-30T00:25:24.619Z,989.6
2022-09-30T00:30:25.117Z,989.6
2022-09-30T00:35:24.437Z,989.6
2022-09-30T00:40:26.065Z,989.7
2022-09-30T00:45:26.365Z,989.7
2022-09-30T00:50:36.511Z,989.7
2022-09-30T00:55:32.022Z,989.7
2022-09-30T01:00:26.740Z,989.7
2022-09-30T01:05:26.293Z,989.7
2022-09-30T01:10:26.867Z,989.8
2022-09-30T01:15:37.608Z,989.8
2022-09-30T01:20:46.915Z,989.8
2022-09-30T01:25:52.789Z,989.9
2022-09-30T01:30:47.466Z,990
2022-09-30T01:35:41.460Z,990
2022-09-30T01:40:37.289Z,989.9
2022-09-30T01:45:34.286Z,990
2022-09-30T01:50:38.002Z,989.9
2022-09-30T01:55:30.803Z,990
2022-09-30T02:00:30.393Z,989.9
2022-09-30T02:05:36.115Z,990
2022-09-30T02:10:32.590Z,989.9
2022-09-30T02:15:38.483Z,990
2022-09-30T02:20:32.030Z,990
2022-09-30T02:25:33.787Z,989.9
2022-09-30T02:30:31.927Z,989.9
2022-09-30T02:35:35.035Z,990.1
2022-09-30T02:40:36.422Z,990.1
2022-09-30T02:45:38.348Z,990.2
2022-09-30T02:50:34.141Z,990.2
2022-09-30T02:55:35.340Z,990.3
2022-09-30T03:00:30.411Z,990.2
2022-09-30T03:05:30.449Z,990.2
2022-09-30T03:10:31.929Z,990.3
2022-09-30T03:15:44.609Z,990.3
2022-09-30T03:20:40.353Z,990.3
2022-09-30T03:25:42.439Z,990.5
2022-09-30T03:30:40.168Z,990.5
2022-09-30T03:35:42.085Z,990.5
2022-09-30T03:40:40.084Z,990.6
2022-09-30T03:45:38.407Z,990.6
2022-09-30T03:50:35.998Z,990.6
2022-09-30T03:55:32.964Z,990.7
2022-09-30T04:00:33.460Z,990.7
2022-09-30T04:05:33.667Z,990.7
2022-09-30T04:10:33.144Z,990.7
2022-09-30T04:15:32.955Z,990.7
2022-09-30T04:20:32.905Z,990.9
2022-09-30T04:25:33.840Z,990.9
2022-09-30T04:30:36.924Z,990.8
2022-09-30T04:35:36.054Z,990.9
2022-09-30T04:40:37.019Z,990.9
2022-09-30T04:45:36.376Z,991
2022-09-30T04:50:36.316Z,991
2022-09-30T04:55:36.389Z,991
2022-09-30T05:00:36.916Z,991.1
2022-09-30T05:05:36.918Z,991.1
2022-09-30T05:10:36.051Z,991.2
2022-09-30T05:15:36.515Z,991.3
2022-09-30T05:20:36.613Z,991.4
2022-09-30T05:25:36.221Z,991.4
2022-09-30T05:30:36.760Z,991.4
2022-09-30T05:35:37.999Z,991.5
2022-09-30T05:40:38.816Z,991.6
2022-09-30T05:45:38.699Z,991.7
2022-09-30T05:50:39.553Z,991.8
2022-09-30T05:55:43.783Z,991.8
2022-09-30T06:00:40.369Z,991.8
2022-09-30T06:05:40.133Z,992
2022-09-30T06:10:40.242Z,992.1
2022-09-30T06:15:39.244Z,992.2
2022-09-30T06:20:39.444Z,992.1
2022-09-30T06:25:38.991Z,992.1
2022-09-30T06:30:38.802Z,992.1
2022-09-30T06:35:40.108Z,992.3
2022-09-30T06:40:40.839Z,992.2
2022-09-30T06:45:41.143Z,992.2
2022-09-30T06:50:47.552Z,992.3
2022-09-30T06:55:43.106Z,992.2
2022-09-30T07:00:42.227Z,992.3
2022-09-30T07:05:42.752Z,992.4
2022-09-30T07:10:46.200Z,992.4
2022-09-30T07:15:43.127Z,992.5
2022-09-30T07:20:47.487Z,992.5
2022-09-30T07:25:51.999Z,992.5
2022-09-30T07:30:43.254Z,992.6
2022-09-30T07:35:52.506Z,992.6
2022-09-30T07:40:53.915Z,992.7
2022-09-30T07:45:47.492Z,992.7
2022-09-30T07:50:47.108Z,992.7
2022-09-30T07:55:47.287Z,992.8
2022-09-30T08:00:47.955Z,992.9
2022-09-30T08:05:49.152Z,993
2022-09-30T08:10:49.019Z,993
2022-09-30T08:15:49.893Z,993
2022-09-30T08:20:50.293Z,993.1
2022-09-30T08:25:49.983Z,993.3
2022-09-30T08:30:50.343Z,993.4
2022-09-30T08:35:49.924Z,993.4
2022-09-30T08:41:01.509Z,993.2
2022-09-30T08:46:02.584Z,993.2
2022-09-30T08:51:03.112Z,993.2
2022-09-30T08:55:53.549Z,993.2
2022-09-30T09:00:54.770Z,993.3
2022-09-30T09:06:00.337Z,993.3
2022-09-30T09:10:59.053Z,993.4
2022-09-30T09:16:01.743Z,993.4
2022-09-30T09:20:55.236Z,993.4
2022-09-30T09:25:52.217Z,993.4
2022-09-30T09:30:56.755Z,993.3
2022-09-30T09:36:01.574Z,993.3
2022-09-30T09:41:04.099Z,993.4
2022-09-30T09:45:59.776Z,993.4
2022-09-30T09:51:01.572Z,993.4
2022-09-30T09:55:55.637Z,993.4
2022-09-30T10:01:09.585Z,993.4
2022-09-30T10:06:04.493Z,993.5
2022-09-30T10:10:58.557Z,993.4
2022-09-30T10:15:55.394Z,993.3
2022-09-30T10:20:56.542Z,993.4
2022-09-30T10:25:59.953Z,993.4
2022-09-30T10:30:57.905Z,993.4
2022-09-30T10:35:59.704Z,993.4
2022-09-30T10:40:53.965Z,993.4
2022-09-30T10:46:20.788Z,993.4
2022-09-30T10:50:55.446Z,993.3
2022-09-30T10:55:53.360Z,993.3
2022-09-30T11:01:00.491Z,993.3
2022-09-30T11:05:58.135Z,993.2
2022-09-30T11:11:05.806Z,993.2
2022-09-30T11:16:04.630Z,993.1
2022-09-30T11:20:59.933Z,993.2
2022-09-30T11:26:02.120Z,993.1
2022-09-30T11:31:07.175Z,993.1
2022-09-30T11:36:01.035Z,993.2
2022-09-30T11:41:02.597Z,993.1
2022-09-30T11:46:10.039Z,993
2022-09-30T11:51:06.000Z,993.1
2022-09-30T11:56:08.091Z,993.1
2022-09-30T12:01:00.190Z,993.1
2022-09-30T12:06:00.729Z,993.1
2022-09-30T12:11:00.702Z,993.1
2022-09-30T12:15:58.052Z,993.1
2022-09-30T12:20:59.678Z,993.1
2022-09-30T12:25:57.375Z,993.1
2022-09-30T12:31:05.103Z,993.1
2022-09-30T12:36:28.606Z,993.2
2022-09-30T12:41:05.491Z,993.2
2022-09-30T12:46:09.719Z,993.2
2022-09-30T12:50:59.297Z,993.2
2022-09-30T12:56:03.361Z,993.2
2022-09-30T13:01:00.872Z,993.2
2022-09-30T13:06:02.626Z,993.2
2022-09-30T13:10:58.907Z,993.2
2022-09-30T13:15:58.295Z,993.1
2022-09-30T13:21:18.113Z,993.2
2022-09-30T13:25:57.487Z,993.1
2022-09-30T13:31:15.582Z,993.2
2022-09-30T13:36:05.929Z,993.2
2022-09-30T13:41:05.234Z,993.1
2022-09-30T13:46:06.925Z,993.2
2022-09-30T13:51:02.713Z,993.2
2022-09-30T13:56:03.573Z,993.1
2022-09-30T14:01:09.086Z,993.1
2022-09-30T14:06:09.572Z,993
2022-09-30T14:11:14.610Z,993
2022-09-30T14:16:15.275Z,992.9
2022-09-30T14:21:10.001Z,992.9
2022-09-30T14:26:09.481Z,993
2022-09-30T14:31:01.310Z,993.1
2022-09-30T14:36:00.778Z,992.9
2022-09-30T14:41:02.030Z,992.9
2022-09-30T14:46:04.921Z,992.9
2022-09-30T14:51:04.424Z,992.8
2022-09-30T14:56:03.304Z,992.9
2022-09-30T15:01:05.764Z,992.8
2022-09-30T15:06:00.215Z,992.8
2022-09-30T15:11:00.222Z,992.8
2022-09-30T15:16:01.010Z,992.8
2022-09-30T15:21:07.001Z,992.7
2022-09-30T15:26:01.603Z,992.6
2022-09-30T15:31:03.315Z,992.6
2022-09-30T15:36:06.639Z,992.6
2022-09-30T15:41:07.836Z,992.6
2022-09-30T15:46:36.282Z,992.6
2022-09-30T15:51:23.360Z,992.6
2022-09-30T15:56:15.868Z,992.7
2022-09-30T16:01:16.376Z,992.6
2022-09-30T16:06:08.351Z,992.6
2022-09-30T16:11:08.450Z,992.6
2022-09-30T16:16:17.683Z,992.5
2022-09-30T16:21:05.103Z,992.6
2022-09-30T16:26:18.098Z,992.6
2022-09-30T16:31:06.324Z,992.7
2022-09-30T16:36:06.853Z,992.6
2022-09-30T16:41:05.183Z,992.7
2022-09-30T16:46:07.708Z,992.8
2022-09-30T16:51:10.420Z,992.8
2022-09-30T16:56:12.297Z,992.8
2022-09-30T17:01:05.369Z,992.8
2022-09-30T17:06:05.883Z,992.8
2022-09-30T17:11:06.975Z,992.8
2022-09-30T17:16:07.475Z,992.9
2022-09-30T17:21:07.696Z,992.9
2022-09-30T17:26:08.094Z,992.9
2022-09-30T17:31:08.804Z,992.9
2022-09-30T17:36:11.074Z,992.8
2022-09-30T17:41:12.953Z,992.9
2022-09-30T17:46:10.873Z,993
2022-09-30T17:51:10.514Z,993
2022-09-30T17:56:15.178Z,993.2
2022-09-30T18:01:10.383Z,993.2
2022-09-30T18:06:10.569Z,993.2
2022-09-30T18:11:10.430Z,993.2
2022-09-30T18:16:10.551Z,993.3
2022-09-30T18:21:11.156Z,993.3
2022-09-30T18:26:11.138Z,993.3
2022-09-30T18:31:11.415Z,993.3
2022-09-30T18:36:12.036Z,993.3
2022-09-30T18:46:01.228Z,993.1
2022-09-30T18:51:01.749Z,993.1
2022-09-30T18:56:02.247Z,993.2
2022-09-30T19:01:02.213Z,993.2
2022-09-30T19:06:06.542Z,993.1
2022-09-30T19:11:08.404Z,993.1
2022-09-30T19:16:03.066Z,993.2
2022-09-30T19:21:03.739Z,993.2
2022-09-30T19:26:03.251Z,993.2
2022-09-30T19:31:06.660Z,993.2
2022-09-30T19:36:14.491Z,993.2
2022-09-30T19:41:04.209Z,993.3
2022-09-30T19:46:06.012Z,993.4
2022-09-30T19:51:06.757Z,993.4
2022-09-30T19:56:06.590Z,993.4
2022-09-30T20:01:05.691Z,993.5
2022-09-30T20:06:06.171Z,993.4
2022-09-30T20:11:06.476Z,993.5
2022-09-30T20:16:07.283Z,993.4
2022-09-30T20:21:08.126Z,993.4
2022-09-30T20:26:04.714Z,993.4
2022-09-30T20:31:06.337Z,993.4
2022-09-30T20:36:07.305Z,993.3
2022-09-30T20:41:06.045Z,993.3
2022-09-30T20:46:08.582Z,993.4
2022-09-30T20:51:09.608Z,993.5
2022-09-30T20:56:11.761Z,993.6
2022-09-30T21:01:11.341Z,993.7
2022-09-30T21:06:09.513Z,993.7
2022-09-30T21:11:09.744Z,993.7
2022-09-30T21:16:11.482Z,993.7
2022-09-30T21:21:11.861Z,993.6
2022-09-30T21:26:12.251Z,993.6
2022-09-30T21:31:15.507Z,993.4
2022-09-30T21:36:11.041Z,993.4
2022-09-30T21:41:11.371Z,993.3
2022-09-30T21:46:13.721Z,993.3
2022-09-30T21:51:12.417Z,993.3
2022-09-30T21:56:12.283Z,993.3
2022-09-30T22:01:12.450Z,993.3
2022-09-30T22:06:12.638Z,993.2
2022-09-30T22:11:14.944Z,993.2
2022-09-30T22:16:13.575Z,993.2
2022-09-30T22:21:13.850Z,993.1
2022-09-30T22:26:14.726Z,993.1
2022-09-30T22:31:16.672Z,993.2
2022-09-30T22:36:13.276Z,993.2
2022-09-30T22:41:15.166Z,993.2
2022-09-30T22:46:13.229Z,993.1
2022-09-30T22:51:15.011Z,993
2022-09-30T22:56:13.092Z,993
2022-09-30T23:01:13.407Z,993
2022-09-30T23:06:13.306Z,993.1
2022-09-30T23:11:15.393Z,993
2022-09-30T23:16:15.495Z,993.2
2022-09-30T23:21:15.842Z,993.2
2022-09-30T23:26:15.825Z,993.1
2022-09-30T23:31:15.541Z,993.1
2022-09-30T23:36:16.707Z,993
2022-09-30T23:41:14.667Z,993
2022-09-30T23:46:16.662Z,992.9
2022-09-30T23:51:15.863Z,992.9
2022-09-30T23:56:17.832Z,992.9
